sensor_id;sensor_type;location;lat;lon;timestamp;P1;durP1;ratioP1;P2;durP2;ratioP2
7169;SDS011;3626;42.656;23.312;2023-04-19T00:00:04;2.17;;;1.40;;
7169;SDS011;3626;42.656;23.312;2023-04-19T00:00:12;2.30;;;1.40;;
7169;SDS011;3626;42.656;23.312;2023-04-19T00:00:19;2.22;;;1.40;;
7169;SDS011;3626;42.656;23.312;2023-04-19T00:00:25;2.18;;;1.34;;
7169;SDS011;3626;42.656;23.312;2023-04-19T00:00:31;2.20;;;1.40;;
7169;SDS011;3626;42.656;23.312;2023-04-19T00:00:37;2.00;;;1.33;;
7169;SDS011;3626;42.656;23.312;2023-04-19T00:00:42;1.95;;;1.30;;
7169;SDS011;3626;42.656;23.312;2023-04-19T00:00:48;1.77;;;1.25;;
7169;SDS011;3626;42.656;23.312;2023-04-19T00:00:55;1.67;;;1.20;;
7169;SDS011;3626;42.656;23.312;2023-04-19T00:01:01;1.80;;;1.20;;
7169;SDS011;3626;42.656;23.312;2023-04-19T00:01:07;1.80;;;1.20;;
7169;SDS011;3626;42.656;23.312;2023-04-19T00:01:13;1.70;;;1.20;;
7169;SDS011;3626;42.656;23.312;2023-04-19T00:01:19;1.70;;;1.20;;
7169;SDS011;3626;42.656;23.312;2023-04-19T00:01:27;1.94;;;1.20;;
7169;SDS011;3626;42.656;23.312;2023-04-19T00:01:33;1.90;;;1.20;;
7169;SDS011;3626;42.656;23.312;2023-04-19T00:01:41;1.90;;;1.30;;
7169;SDS011;3626;42.656;23.312;2023-04-19T00:01:47;2.00;;;1.30;;
7169;SDS011;3626;42.656;23.312;2023-04-19T00:01:53;1.92;;;1.30;;
7169;SDS011;3626;42.656;23.312;2023-04-19T00:01:59;1.83;;;1.30;;
7169;SDS011;3626;42.656;23.312;2023-04-19T00:02:06;1.70;;;1.20;;
7169;SDS011;3626;42.656;23.312;2023-04-19T00:02:12;1.80;;;1.30;;
7169;SDS011;3626;42.656;23.312;2023-04-19T00:02:18;1.83;;;1.30;;
7169;SDS011;3626;42.656;23.312;2023-04-19T00:02:24;1.67;;;1.30;;
7169;SDS011;3626;42.656;23.312;2023-04-19T00:02:30;1.53;;;1.30;;
7169;SDS011;3626;42.656;23.312;2023-04-19T00:02:38;1.63;;;1.33;;
7169;SDS011;3626;42.656;23.312;2023-04-19T00:02:45;1.75;;;1.40;;
7169;SDS011;3626;42.656;23.312;2023-04-19T00:02:53;1.76;;;1.40;;
7169;SDS011;3626;42.656;23.312;2023-04-19T00:03:00;1.80;;;1.43;;
7169;SDS011;3626;42.656;23.312;2023-04-19T00:03:07;1.88;;;1.50;;
7169;SDS011;3626;42.656;23.312;2023-04-19T00:03:13;1.83;;;1.40;;
7169;SDS011;3626;42.656;23.312;2023-04-19T00:03:19;2.13;;;1.50;;
7169;SDS011;3626;42.656;23.312;2023-04-19T00:03:28;2.20;;;1.50;;
7169;SDS011;3626;42.656;23.312;2023-04-19T00:03:34;2.20;;;1.50;;
7169;SDS011;3626;42.656;23.312;2023-04-19T00:03:42;2.00;;;1.40;;
7169;SDS011;3626;42.656;23.312;2023-04-19T00:03:47;2.08;;;1.42;;
7169;SDS011;3626;42.656;23.312;2023-04-19T00:03:53;2.00;;;1.40;;
7169;SDS011;3626;42.656;23.312;2023-04-19T00:04:00;2.10;;;1.40;;
7169;SDS011;3626;42.656;23.312;2023-04-19T00:04:07;2.20;;;1.50;;
7169;SDS011;3626;42.656;23.312;2023-04-19T00:04:13;2.17;;;1.50;;
7169;SDS011;3626;42.656;23.312;2023-04-19T00:04:19;1.83;;;1.40;;
7169;SDS011;3626;42.656;23.312;2023-04-19T00:04:24;1.80;;;1.40;;
7169;SDS011;3626;42.656;23.312;2023-04-19T00:04:30;1.83;;;1.40;;
7169;SDS011;3626;42.656;23.312;2023-04-19T00:04:37;1.93;;;1.37;;
7169;SDS011;3626;42.656;23.312;2023-04-19T00:04:43;2.10;;;1.40;;
7169;SDS011;3626;42.656;23.312;2023-04-19T00:04:49;2.00;;;1.40;;
7169;SDS011;3626;42.656;23.312;2023-04-19T00:04:55;1.97;;;1.37;;
7169;SDS011;3626;42.656;23.312;2023-04-19T00:05:00;1.75;;;1.30;;
7169;SDS011;3626;42.656;23.312;2023-04-19T00:05:07;1.63;;;1.20;;
7169;SDS011;3626;42.656;23.312;2023-04-19T00:05:13;1.52;;;1.14;;
7169;SDS011;3626;42.656;23.312;2023-04-19T00:05:19;1.88;;;1.20;;
7169;SDS011;3626;42.656;23.312;2023-04-19T00:05:27;1.85;;;1.20;;
7169;SDS011;3626;42.656;23.312;2023-04-19T00:05:33;1.88;;;1.20;;
7169;SDS011;3626;42.656;23.312;2023-04-19T00:05:39;1.88;;;1.20;;
7169;SDS011;3626;42.656;23.312;2023-04-19T00:05:45;1.83;;;1.20;;
7169;SDS011;3626;42.656;23.312;2023-04-19T00:05:53;2.18;;;1.26;;
7169;SDS011;3626;42.656;23.312;2023-04-19T00:05:58;2.22;;;1.30;;
7169;SDS011;3626;42.656;23.312;2023-04-19T00:06:04;2.38;;;1.40;;
7169;SDS011;3626;42.656;23.312;2023-04-19T00:06:12;2.48;;;1.45;;
7169;SDS011;3626;42.656;23.312;2023-04-19T00:06:19;2.26;;;1.40;;
7169;SDS011;3626;42.656;23.312;2023-04-19T00:06:25;2.40;;;1.50;;
7169;SDS011;3626;42.656;23.312;2023-04-19T00:06:34;2.20;;;1.40;;
7169;SDS011;3626;42.656;23.312;2023-04-19T00:06:40;2.35;;;1.40;;
7169;SDS011;3626;42.656;23.312;2023-04-19T00:06:46;3.13;;;1.40;;
7169;SDS011;3626;42.656;23.312;2023-04-19T00:06:52;2.90;;;1.40;;
7169;SDS011;3626;42.656;23.312;2023-04-19T00:06:58;2.90;;;1.30;;
7169;SDS011;3626;42.656;23.312;2023-04-19T00:07:03;2.80;;;1.23;;
7169;SDS011;3626;42.656;23.312;2023-04-19T00:07:10;2.80;;;1.22;;
7169;SDS011;3626;42.656;23.312;2023-04-19T00:07:16;2.80;;;1.20;;
7169;SDS011;3626;42.656;23.312;2023-04-19T00:07:22;3.70;;;1.27;;
7169;SDS011;3626;42.656;23.312;2023-04-19T00:07:28;3.63;;;1.20;;
7169;SDS011;3626;42.656;23.312;2023-04-19T00:07:34;3.70;;;1.20;;
7169;SDS011;3626;42.656;23.312;2023-04-19T00:07:40;3.30;;;1.20;;
7169;SDS011;3626;42.656;23.312;2023-04-19T00:07:46;2.63;;;1.20;;
7169;SDS011;3626;42.656;23.312;2023-04-19T00:07:51;2.80;;;1.27;;
7169;SDS011;3626;42.656;23.312;2023-04-19T00:07:57;3.33;;;1.38;;
7169;SDS011;3626;42.656;23.312;2023-04-19T00:08:03;3.50;;;1.45;;
7169;SDS011;3626;42.656;23.312;2023-04-19T00:08:09;3.43;;;1.40;;
7169;SDS011;3626;42.656;23.312;2023-04-19T00:08:15;3.40;;;1.40;;
7169;SDS011;3626;42.656;23.312;2023-04-19T00:08:21;2.60;;;1.33;;
7169;SDS011;3626;42.656;23.312;2023-04-19T00:08:27;2.33;;;1.30;;
7169;SDS011;3626;42.656;23.312;2023-04-19T00:08:33;2.30;;;1.40;;
7169;SDS011;3626;42.656;23.312;2023-04-19T00:08:39;2.30;;;1.40;;
7169;SDS011;3626;42.656;23.312;2023-04-19T00:08:44;2.20;;;1.33;;
7169;SDS011;3626;42.656;23.312;2023-04-19T00:08:51;2.00;;;1.30;;
7169;SDS011;3626;42.656;23.312;2023-04-19T00:08:57;1.52;;;1.25;;
7169;SDS011;3626;42.656;23.312;2023-04-19T00:09:03;1.45;;;1.20;;
7169;SDS011;3626;42.656;23.312;2023-04-19T00:09:08;1.65;;;1.30;;
7169;SDS011;3626;42.656;23.312;2023-04-19T00:09:14;1.73;;;1.30;;
7169;SDS011;3626;42.656;23.312;2023-04-19T00:09:20;1.75;;;1.30;;
7169;SDS011;3626;42.656;23.312;2023-04-19T00:09:26;1.80;;;1.40;;
7169;SDS011;3626;42.656;23.312;2023-04-19T00:09:31;1.90;;;1.35;;
7169;SDS011;3626;42.656;23.312;2023-04-19T00:09:37;1.97;;;1.37;;
7169;SDS011;3626;42.656;23.312;2023-04-19T00:09:43;2.00;;;1.33;;
7169;SDS011;3626;42.656;23.312;2023-04-19T00:09:49;2.20;;;1.30;;
7169;SDS011;3626;42.656;23.312;2023-04-19T00:09:55;2.55;;;1.30;;
7169;SDS011;3626;42.656;23.312;2023-04-19T00:10:00;2.65;;;1.35;;
7169;SDS011;3626;42.656;23.312;2023-04-19T00:10:07;2.58;;;1.30;;
7169;SDS011;3626;42.656;23.312;2023-04-19T00:10:14;2.47;;;1.30;;
7169;SDS011;3626;42.656;23.312;2023-04-19T00:10:22;2.40;;;1.30;;
7169;SDS011;3626;42.656;23.312;2023-04-19T00:10:28;2.40;;;1.30;;
7169;SDS011;3626;42.656;23.312;2023-04-19T00:10:33;2.40;;;1.30;;
7169;SDS011;3626;42.656;23.312;2023-04-19T00:10:40;3.13;;;1.40;;
7169;SDS011;3626;42.656;23.312;2023-04-19T00:10:45;3.40;;;1.40;;
7169;SDS011;3626;42.656;23.312;2023-04-19T00:10:51;3.07;;;1.47;;
7169;SDS011;3626;42.656;23.312;2023-04-19T00:10:57;2.85;;;1.40;;
7169;SDS011;3626;42.656;23.312;2023-04-19T00:11:03;2.70;;;1.40;;
7169;SDS011;3626;42.656;23.312;2023-04-19T00:11:09;3.03;;;1.40;;
7169;SDS011;3626;42.656;23.312;2023-04-19T00:11:14;3.17;;;1.48;;
7169;SDS011;3626;42.656;23.312;2023-04-19T00:11:20;3.30;;;1.55;;
7169;SDS011;3626;42.656;23.312;2023-04-19T00:11:26;3.30;;;1.60;;
7169;SDS011;3626;42.656;23.312;2023-04-19T00:11:32;3.35;;;1.50;;
7169;SDS011;3626;42.656;23.312;2023-04-19T00:11:39;2.67;;;1.47;;
7169;SDS011;3626;42.656;23.312;2023-04-19T00:11:45;2.33;;;1.40;;
7169;SDS011;3626;42.656;23.312;2023-04-19T00:11:51;2.50;;;1.40;;
7169;SDS011;3626;42.656;23.312;2023-04-19T00:11:57;2.40;;;1.40;;
7169;SDS011;3626;42.656;23.312;2023-04-19T00:12:03;3.53;;;1.40;;
7169;SDS011;3626;42.656;23.312;2023-04-19T00:12:08;3.75;;;1.40;;
7169;SDS011;3626;42.656;23.312;2023-04-19T00:12:15;3.67;;;1.43;;
7169;SDS011;3626;42.656;23.312;2023-04-19T00:12:21;3.53;;;1.30;;
7169;SDS011;3626;42.656;23.312;2023-04-19T00:12:27;3.50;;;1.30;;
7169;SDS011;3626;42.656;23.312;2023-04-19T00:12:33;3.65;;;1.30;;
7169;SDS011;3626;42.656;23.312;2023-04-19T00:12:39;3.70;;;1.38;;
7169;SDS011;3626;42.656;23.312;2023-04-19T00:12:44;3.67;;;1.40;;
7169;SDS011;3626;42.656;23.312;2023-04-19T00:12:50;3.65;;;1.40;;
7169;SDS011;3626;42.656;23.312;2023-04-19T00:12:56;3.70;;;1.50;;
7169;SDS011;3626;42.656;23.312;2023-04-19T00:13:02;2.97;;;1.48;;
7169;SDS011;3626;42.656;23.312;2023-04-19T00:13:08;2.25;;;1.50;;
7169;SDS011;3626;42.656;23.312;2023-04-19T00:13:13;2.10;;;1.40;;
7169;SDS011;3626;42.656;23.312;2023-04-19T00:13:20;2.20;;;1.44;;
7169;SDS011;3626;42.656;23.312;2023-04-19T00:13:26;2.30;;;1.50;;
7169;SDS011;3626;42.656;23.312;2023-04-19T00:13:32;2.30;;;1.50;;
7169;SDS011;3626;42.656;23.312;2023-04-19T00:13:37;2.40;;;1.60;;
7169;SDS011;3626;42.656;23.312;2023-04-19T00:13:43;2.47;;;1.60;;
7169;SDS011;3626;42.656;23.312;2023-04-19T00:13:49;2.78;;;1.67;;
7169;SDS011;3626;42.656;23.312;2023-04-19T00:13:55;3.10;;;1.70;;
7169;SDS011;3626;42.656;23.312;2023-04-19T00:14:01;3.30;;;1.70;;
7169;SDS011;3626;42.656;23.312;2023-04-19T00:14:07;3.15;;;1.65;;
7169;SDS011;3626;42.656;23.312;2023-04-19T00:14:12;3.10;;;1.63;;
7169;SDS011;3626;42.656;23.312;2023-04-19T00:14:18;3.03;;;1.70;;
7169;SDS011;3626;42.656;23.312;2023-04-19T00:14:24;2.90;;;1.70;;
7169;SDS011;3626;42.656;23.312;2023-04-19T00:14:30;2.85;;;1.60;;
7169;SDS011;3626;42.656;23.312;2023-04-19T00:14:36;3.03;;;1.60;;
7169;SDS011;3626;42.656;23.312;2023-04-19T00:14:43;3.13;;;1.67;;
7169;SDS011;3626;42.656;23.312;2023-04-19T00:14:48;2.97;;;1.67;;
7169;SDS011;3626;42.656;23.312;2023-04-19T00:14:54;2.55;;;1.67;;
7169;SDS011;3626;42.656;23.312;2023-04-19T00:15:00;2.58;;;1.70;;
7169;SDS011;3626;42.656;23.312;2023-04-19T00:15:06;2.67;;;1.77;;
7169;SDS011;3626;42.656;23.312;2023-04-19T00:15:12;2.80;;;1.80;;
7169;SDS011;3626;42.656;23.312;2023-04-19T00:15:18;2.80;;;1.80;;
7169;SDS011;3626;42.656;23.312;2023-04-19T00:15:24;2.80;;;1.80;;
7169;SDS011;3626;42.656;23.312;2023-04-19T00:15:30;2.70;;;1.70;;
7169;SDS011;3626;42.656;23.312;2023-04-19T00:15:36;2.53;;;1.70;;
7169;SDS011;3626;42.656;23.312;2023-04-19T00:15:42;2.50;;;1.70;;
7169;SDS011;3626;42.656;23.312;2023-04-19T00:15:49;2.42;;;1.70;;
7169;SDS011;3626;42.656;23.312;2023-04-19T00:15:55;2.22;;;1.60;;
7169;SDS011;3626;42.656;23.312;2023-04-19T00:16:01;2.10;;;1.50;;
7169;SDS011;3626;42.656;23.312;2023-04-19T00:16:08;2.07;;;1.47;;
7169;SDS011;3626;42.656;23.312;2023-04-19T00:16:14;2.00;;;1.40;;
7169;SDS011;3626;42.656;23.312;2023-04-19T00:16:20;2.00;;;1.50;;
7169;SDS011;3626;42.656;23.312;2023-04-19T00:16:26;2.08;;;1.50;;
7169;SDS011;3626;42.656;23.312;2023-04-19T00:16:32;2.03;;;1.50;;
7169;SDS011;3626;42.656;23.312;2023-04-19T00:16:38;1.87;;;1.40;;
7169;SDS011;3626;42.656;23.312;2023-04-19T00:16:43;1.80;;;1.38;;
7169;SDS011;3626;42.656;23.312;2023-04-19T00:16:51;2.18;;;1.40;;
7169;SDS011;3626;42.656;23.312;2023-04-19T00:16:57;2.20;;;1.50;;
7169;SDS011;3626;42.656;23.312;2023-04-19T00:17:04;2.40;;;1.60;;
7169;SDS011;3626;42.656;23.312;2023-04-19T00:17:10;2.40;;;1.60;;
7169;SDS011;3626;42.656;23.312;2023-04-19T00:17:16;2.50;;;1.63;;
7169;SDS011;3626;42.656;23.312;2023-04-19T00:17:22;2.87;;;1.70;;
7169;SDS011;3626;42.656;23.312;2023-04-19T00:17:27;3.10;;;1.75;;
7169;SDS011;3626;42.656;23.312;2023-04-19T00:17:33;3.00;;;1.70;;
7169;SDS011;3626;42.656;23.312;2023-04-19T00:17:39;3.08;;;1.73;;
7169;SDS011;3626;42.656;23.312;2023-04-19T00:17:45;3.28;;;1.80;;
7169;SDS011;3626;42.656;23.312;2023-04-19T00:17:55;3.23;;;1.80;;
7169;SDS011;3626;42.656;23.312;2023-04-19T00:18:01;3.13;;;1.77;;
7169;SDS011;3626;42.656;23.312;2023-04-19T00:18:06;3.08;;;1.73;;
7169;SDS011;3626;42.656;23.312;2023-04-19T00:18:12;3.10;;;1.73;;
7169;SDS011;3626;42.656;23.312;2023-04-19T00:18:18;3.03;;;1.70;;
7169;SDS011;3626;42.656;23.312;2023-04-19T00:18:24;2.55;;;1.60;;
7169;SDS011;3626;42.656;23.312;2023-04-19T00:18:30;2.67;;;1.60;;
7169;SDS011;3626;42.656;23.312;2023-04-19T00:18:35;3.00;;;1.70;;
7169;SDS011;3626;42.656;23.312;2023-04-19T00:18:42;2.83;;;1.70;;
7169;SDS011;3626;42.656;23.312;2023-04-19T00:18:48;2.78;;;1.60;;
7169;SDS011;3626;42.656;23.312;2023-04-19T00:18:54;3.17;;;1.70;;
7169;SDS011;3626;42.656;23.312;2023-04-19T00:19:00;3.20;;;1.60;;
7169;SDS011;3626;42.656;23.312;2023-04-19T00:19:06;3.10;;;1.60;;
7169;SDS011;3626;42.656;23.312;2023-04-19T00:19:13;3.25;;;1.63;;
7169;SDS011;3626;42.656;23.312;2023-04-19T00:19:18;3.30;;;1.67;;
7169;SDS011;3626;42.656;23.312;2023-04-19T00:19:26;3.60;;;1.70;;
7169;SDS011;3626;42.656;23.312;2023-04-19T00:19:32;3.88;;;1.70;;
7169;SDS011;3626;42.656;23.312;2023-04-19T00:19:38;3.63;;;1.70;;
7169;SDS011;3626;42.656;23.312;2023-04-19T00:19:43;3.63;;;1.70;;
7169;SDS011;3626;42.656;23.312;2023-04-19T00:19:49;3.42;;;1.70;;
7169;SDS011;3626;42.656;23.312;2023-04-19T00:19:55;3.15;;;1.70;;
7169;SDS011;3626;42.656;23.312;2023-04-19T00:20:01;3.33;;;1.80;;
7169;SDS011;3626;42.656;23.312;2023-04-19T00:20:10;3.40;;;1.80;;
7169;SDS011;3626;42.656;23.312;2023-04-19T00:20:17;3.93;;;1.80;;
7169;SDS011;3626;42.656;23.312;2023-04-19T00:20:24;4.30;;;1.73;;
7169;SDS011;3626;42.656;23.312;2023-04-19T00:20:31;3.67;;;1.67;;
7169;SDS011;3626;42.656;23.312;2023-04-19T00:20:37;3.80;;;1.60;;
7169;SDS011;3626;42.656;23.312;2023-04-19T00:20:43;3.85;;;1.60;;
7169;SDS011;3626;42.656;23.312;2023-04-19T00:20:50;3.88;;;1.66;;
7169;SDS011;3626;42.656;23.312;2023-04-19T00:20:56;3.70;;;1.60;;
7169;SDS011;3626;42.656;23.312;2023-04-19T00:21:02;3.38;;;1.48;;
7169;SDS011;3626;42.656;23.312;2023-04-19T00:21:08;3.40;;;1.50;;
7169;SDS011;3626;42.656;23.312;2023-04-19T00:21:14;3.38;;;1.50;;
7169;SDS011;3626;42.656;23.312;2023-04-19T00:21:20;2.40;;;1.40;;
7169;SDS011;3626;42.656;23.312;2023-04-19T00:21:26;2.50;;;1.40;;
7169;SDS011;3626;42.656;23.312;2023-04-19T00:21:32;2.28;;;1.40;;
7169;SDS011;3626;42.656;23.312;2023-04-19T00:21:38;2.20;;;1.40;;
7169;SDS011;3626;42.656;23.312;2023-04-19T00:21:44;2.10;;;1.40;;
7169;SDS011;3626;42.656;23.312;2023-04-19T00:21:49;2.00;;;1.30;;
7169;SDS011;3626;42.656;23.312;2023-04-19T00:21:55;2.00;;;1.30;;
7169;SDS011;3626;42.656;23.312;2023-04-19T00:22:02;2.00;;;1.30;;
7169;SDS011;3626;42.656;23.312;2023-04-19T00:22:08;2.00;;;1.30;;
7169;SDS011;3626;42.656;23.312;2023-04-19T00:22:14;1.90;;;1.33;;
7169;SDS011;3626;42.656;23.312;2023-04-19T00:22:19;1.90;;;1.40;;
7169;SDS011;3626;42.656;23.312;2023-04-19T00:22:25;1.92;;;1.33;;
7169;SDS011;3626;42.656;23.312;2023-04-19T00:22:31;1.80;;;1.30;;
7169;SDS011;3626;42.656;23.312;2023-04-19T00:22:37;1.70;;;1.30;;
7169;SDS011;3626;42.656;23.312;2023-04-19T00:22:43;1.80;;;1.30;;
7169;SDS011;3626;42.656;23.312;2023-04-19T00:22:48;1.83;;;1.30;;
7169;SDS011;3626;42.656;23.312;2023-04-19T00:22:54;1.80;;;1.30;;
7169;SDS011;3626;42.656;23.312;2023-04-19T00:23:02;1.80;;;1.30;;
7169;SDS011;3626;42.656;23.312;2023-04-19T00:23:08;1.70;;;1.30;;
7169;SDS011;3626;42.656;23.312;2023-04-19T00:23:14;1.63;;;1.20;;
7169;SDS011;3626;42.656;23.312;2023-04-19T00:23:20;1.97;;;1.30;;
7169;SDS011;3626;42.656;23.312;2023-04-19T00:23:26;1.80;;;1.30;;
7169;SDS011;3626;42.656;23.312;2023-04-19T00:23:32;1.85;;;1.30;;
7169;SDS011;3626;42.656;23.312;2023-04-19T00:23:38;2.00;;;1.40;;
7169;SDS011;3626;42.656;23.312;2023-04-19T00:23:44;2.00;;;1.30;;
7169;SDS011;3626;42.656;23.312;2023-04-19T00:23:50;1.92;;;1.30;;
7169;SDS011;3626;42.656;23.312;2023-04-19T00:23:58;1.97;;;1.30;;
7169;SDS011;3626;42.656;23.312;2023-04-19T00:24:04;2.10;;;1.30;;
7169;SDS011;3626;42.656;23.312;2023-04-19T00:24:12;2.10;;;1.30;;
7169;SDS011;3626;42.656;23.312;2023-04-19T00:24:17;1.88;;;1.30;;
7169;SDS011;3626;42.656;23.312;2023-04-19T00:24:26;1.83;;;1.30;;
7169;SDS011;3626;42.656;23.312;2023-04-19T00:24:32;2.17;;;1.30;;
7169;SDS011;3626;42.656;23.312;2023-04-19T00:24:40;2.00;;;1.20;;
7169;SDS011;3626;42.656;23.312;2023-04-19T00:24:46;2.00;;;1.20;;
7169;SDS011;3626;42.656;23.312;2023-04-19T00:24:52;1.95;;;1.20;;
7169;SDS011;3626;42.656;23.312;2023-04-19T00:24:58;2.08;;;1.20;;
7169;SDS011;3626;42.656;23.312;2023-04-19T00:25:04;2.00;;;1.20;;
7169;SDS011;3626;42.656;23.312;2023-04-19T00:25:10;2.00;;;1.30;;
7169;SDS011;3626;42.656;23.312;2023-04-19T00:25:15;2.00;;;1.30;;
7169;SDS011;3626;42.656;23.312;2023-04-19T00:25:21;2.00;;;1.30;;
7169;SDS011;3626;42.656;23.312;2023-04-19T00:25:27;1.73;;;1.30;;
7169;SDS011;3626;42.656;23.312;2023-04-19T00:25:35;1.98;;;1.30;;
7169;SDS011;3626;42.656;23.312;2023-04-19T00:25:40;2.20;;;1.40;;
7169;SDS011;3626;42.656;23.312;2023-04-19T00:25:47;2.20;;;1.40;;
7169;SDS011;3626;42.656;23.312;2023-04-19T00:25:53;2.13;;;1.37;;
7169;SDS011;3626;42.656;23.312;2023-04-19T00:26:01;2.00;;;1.33;;
7169;SDS011;3626;42.656;23.312;2023-04-19T00:26:07;2.18;;;1.40;;
7169;SDS011;3626;42.656;23.312;2023-04-19T00:26:15;2.53;;;1.43;;
7169;SDS011;3626;42.656;23.312;2023-04-19T00:26:21;2.40;;;1.40;;
7169;SDS011;3626;42.656;23.312;2023-04-19T00:26:27;2.53;;;1.40;;
7169;SDS011;3626;42.656;23.312;2023-04-19T00:26:32;2.65;;;1.40;;
7169;SDS011;3626;42.656;23.312;2023-04-19T00:26:38;2.53;;;1.37;;
7169;SDS011;3626;42.656;23.312;2023-04-19T00:26:44;2.50;;;1.33;;
7169;SDS011;3626;42.656;23.312;2023-04-19T00:26:50;2.50;;;1.38;;
7169;SDS011;3626;42.656;23.312;2023-04-19T00:26:55;2.65;;;1.40;;
7169;SDS011;3626;42.656;23.312;2023-04-19T00:27:03;2.70;;;1.38;;
7169;SDS011;3626;42.656;23.312;2023-04-19T00:27:08;2.60;;;1.33;;
7169;SDS011;3626;42.656;23.312;2023-04-19T00:27:16;2.47;;;1.30;;
7169;SDS011;3626;42.656;23.312;2023-04-19T00:27:21;2.50;;;1.30;;
7169;SDS011;3626;42.656;23.312;2023-04-19T00:27:27;2.30;;;1.38;;
7169;SDS011;3626;42.656;23.312;2023-04-19T00:27:33;2.17;;;1.40;;
7169;SDS011;3626;42.656;23.312;2023-04-19T00:27:39;2.10;;;1.30;;
7169;SDS011;3626;42.656;23.312;2023-04-19T00:27:45;2.10;;;1.30;;
7169;SDS011;3626;42.656;23.312;2023-04-19T00:27:52;2.13;;;1.40;;
7169;SDS011;3626;42.656;23.312;2023-04-19T00:27:58;2.00;;;1.40;;
7169;SDS011;3626;42.656;23.312;2023-04-19T00:28:04;2.10;;;1.40;;
7169;SDS011;3626;42.656;23.312;2023-04-19T00:28:09;1.95;;;1.40;;
7169;SDS011;3626;42.656;23.312;2023-04-19T00:28:15;2.10;;;1.42;;
7169;SDS011;3626;42.656;23.312;2023-04-19T00:28:21;2.13;;;1.50;;
7169;SDS011;3626;42.656;23.312;2023-04-19T00:28:27;3.53;;;1.50;;
7169;SDS011;3626;42.656;23.312;2023-04-19T00:28:33;3.80;;;1.50;;
7169;SDS011;3626;42.656;23.312;2023-04-19T00:28:38;3.83;;;1.50;;
7169;SDS011;3626;42.656;23.312;2023-04-19T00:28:44;4.03;;;1.60;;
7169;SDS011;3626;42.656;23.312;2023-04-19T00:28:50;3.97;;;1.50;;
7169;SDS011;3626;42.656;23.312;2023-04-19T00:28:56;3.90;;;1.50;;
7169;SDS011;3626;42.656;23.312;2023-04-19T00:29:01;3.90;;;1.42;;
7169;SDS011;3626;42.656;23.312;2023-04-19T00:29:07;4.05;;;1.48;;
7169;SDS011;3626;42.656;23.312;2023-04-19T00:29:13;3.93;;;1.50;;
7169;SDS011;3626;42.656;23.312;2023-04-19T00:29:19;3.90;;;1.40;;
7169;SDS011;3626;42.656;23.312;2023-04-19T00:29:26;2.50;;;1.30;;
7169;SDS011;3626;42.656;23.312;2023-04-19T00:29:32;2.00;;;1.30;;
7169;SDS011;3626;42.656;23.312;2023-04-19T00:29:38;1.98;;;1.27;;
7169;SDS011;3626;42.656;23.312;2023-04-19T00:29:43;1.88;;;1.20;;
7169;SDS011;3626;42.656;23.312;2023-04-19T00:29:49;1.83;;;1.20;;
7169;SDS011;3626;42.656;23.312;2023-04-19T00:29:55;2.17;;;1.30;;
7169;SDS011;3626;42.656;23.312;2023-04-19T00:30:01;2.10;;;1.30;;
7169;SDS011;3626;42.656;23.312;2023-04-19T00:30:08;2.03;;;1.30;;
7169;SDS011;3626;42.656;23.312;2023-04-19T00:30:14;1.98;;;1.20;;
7169;SDS011;3626;42.656;23.312;2023-04-19T00:30:20;2.05;;;1.20;;
7169;SDS011;3626;42.656;23.312;2023-04-19T00:30:26;2.00;;;1.20;;
7169;SDS011;3626;42.656;23.312;2023-04-19T00:30:31;2.10;;;1.27;;
7169;SDS011;3626;42.656;23.312;2023-04-19T00:30:37;2.10;;;1.30;;
7169;SDS011;3626;42.656;23.312;2023-04-19T00:30:43;2.10;;;1.30;;
7169;SDS011;3626;42.656;23.312;2023-04-19T00:30:50;2.17;;;1.40;;
7169;SDS011;3626;42.656;23.312;2023-04-19T00:30:55;1.80;;;1.30;;
7169;SDS011;3626;42.656;23.312;2023-04-19T00:31:01;1.83;;;1.30;;
7169;SDS011;3626;42.656;23.312;2023-04-19T00:31:07;2.10;;;1.30;;
7169;SDS011;3626;42.656;23.312;2023-04-19T00:31:13;1.97;;;1.30;;
7169;SDS011;3626;42.656;23.312;2023-04-19T00:31:19;1.90;;;1.30;;
7169;SDS011;3626;42.656;23.312;2023-04-19T00:31:24;1.80;;;1.25;;
7169;SDS011;3626;42.656;23.312;2023-04-19T00:31:30;2.00;;;1.23;;
7169;SDS011;3626;42.656;23.312;2023-04-19T00:31:36;2.08;;;1.20;;
7169;SDS011;3626;42.656;23.312;2023-04-19T00:31:43;2.32;;;1.30;;
7169;SDS011;3626;42.656;23.312;2023-04-19T00:31:49;2.50;;;1.30;;
7169;SDS011;3626;42.656;23.312;2023-04-19T00:31:55;2.55;;;1.30;;
7169;SDS011;3626;42.656;23.312;2023-04-19T00:32:01;2.60;;;1.30;;
7169;SDS011;3626;42.656;23.312;2023-04-19T00:32:09;2.20;;;1.30;;
7169;SDS011;3626;42.656;23.312;2023-04-19T00:32:15;2.20;;;1.30;;
7169;SDS011;3626;42.656;23.312;2023-04-19T00:32:21;2.30;;;1.30;;
7169;SDS011;3626;42.656;23.312;2023-04-19T00:32:27;2.28;;;1.40;;
7169;SDS011;3626;42.656;23.312;2023-04-19T00:32:33;2.20;;;1.40;;
7169;SDS011;3626;42.656;23.312;2023-04-19T00:32:39;2.03;;;1.37;;
7169;SDS011;3626;42.656;23.312;2023-04-19T00:32:44;1.83;;;1.30;;
7169;SDS011;3626;42.656;23.312;2023-04-19T00:32:53;1.85;;;1.37;;
7169;SDS011;3626;42.656;23.312;2023-04-19T00:32:58;2.00;;;1.40;;
7169;SDS011;3626;42.656;23.312;2023-04-19T00:33:04;1.92;;;1.40;;
7169;SDS011;3626;42.656;23.312;2023-04-19T00:33:16;1.96;;;1.39;;
7169;SDS011;3626;42.656;23.312;2023-04-19T00:33:22;1.98;;;1.40;;
7169;SDS011;3626;42.656;23.312;2023-04-19T00:33:28;2.20;;;1.40;;
7169;SDS011;3626;42.656;23.312;2023-04-19T00:33:34;2.13;;;1.37;;
7169;SDS011;3626;42.656;23.312;2023-04-19T00:33:39;2.10;;;1.30;;
7169;SDS011;3626;42.656;23.312;2023-04-19T00:33:46;2.10;;;1.30;;
7169;SDS011;3626;42.656;23.312;2023-04-19T00:33:52;2.05;;;1.30;;
7169;SDS011;3626;42.656;23.312;2023-04-19T00:33:58;2.10;;;1.30;;
7169;SDS011;3626;42.656;23.312;2023-04-19T00:34:03;2.10;;;1.30;;
7169;SDS011;3626;42.656;23.312;2023-04-19T00:34:10;2.10;;;1.40;;
7169;SDS011;3626;42.656;23.312;2023-04-19T00:34:16;2.20;;;1.38;;
7169;SDS011;3626;42.656;23.312;2023-04-19T00:34:22;2.28;;;1.38;;
7169;SDS011;3626;42.656;23.312;2023-04-19T00:34:27;2.10;;;1.40;;
7169;SDS011;3626;42.656;23.312;2023-04-19T00:34:33;2.08;;;1.40;;
7169;SDS011;3626;42.656;23.312;2023-04-19T00:34:39;2.05;;;1.40;;
7169;SDS011;3626;42.656;23.312;2023-04-19T00:34:45;2.00;;;1.40;;
7169;SDS011;3626;42.656;23.312;2023-04-19T00:34:51;1.88;;;1.35;;
7169;SDS011;3626;42.656;23.312;2023-04-19T00:34:58;1.80;;;1.40;;
7169;SDS011;3626;42.656;23.312;2023-04-19T00:35:04;1.80;;;1.35;;
7169;SDS011;3626;42.656;23.312;2023-04-19T00:35:10;1.87;;;1.40;;
7169;SDS011;3626;42.656;23.312;2023-04-19T00:35:16;2.20;;;1.45;;
7169;SDS011;3626;42.656;23.312;2023-04-19T00:35:22;2.30;;;1.45;;
7169;SDS011;3626;42.656;23.312;2023-04-19T00:35:27;2.30;;;1.40;;
7169;SDS011;3626;42.656;23.312;2023-04-19T00:35:33;2.80;;;1.50;;
7169;SDS011;3626;42.656;23.312;2023-04-19T00:35:41;3.00;;;1.50;;
7169;SDS011;3626;42.656;23.312;2023-04-19T00:35:46;3.00;;;1.50;;
7169;SDS011;3626;42.656;23.312;2023-04-19T00:35:54;3.15;;;1.47;;
7169;SDS011;3626;42.656;23.312;2023-04-19T00:36:00;3.10;;;1.40;;
7169;SDS011;3626;42.656;23.312;2023-04-19T00:36:06;3.00;;;1.35;;
7169;SDS011;3626;42.656;23.312;2023-04-19T00:36:12;2.83;;;1.30;;
7169;SDS011;3626;42.656;23.312;2023-04-19T00:36:18;2.50;;;1.30;;
7169;SDS011;3626;42.656;23.312;2023-04-19T00:36:24;2.40;;;1.30;;
7169;SDS011;3626;42.656;23.312;2023-04-19T00:36:31;2.03;;;1.30;;
7169;SDS011;3626;42.656;23.312;2023-04-19T00:36:37;2.00;;;1.30;;
7169;SDS011;3626;42.656;23.312;2023-04-19T00:36:42;1.97;;;1.30;;
7169;SDS011;3626;42.656;23.312;2023-04-19T00:36:48;1.88;;;1.30;;
7169;SDS011;3626;42.656;23.312;2023-04-19T00:36:55;1.80;;;1.30;;
7169;SDS011;3626;42.656;23.312;2023-04-19T00:37:00;2.00;;;1.40;;
7169;SDS011;3626;42.656;23.312;2023-04-19T00:37:08;2.00;;;1.40;;
7169;SDS011;3626;42.656;23.312;2023-04-19T00:37:15;3.30;;;1.44;;
7169;SDS011;3626;42.656;23.312;2023-04-19T00:37:21;5.00;;;1.40;;
7169;SDS011;3626;42.656;23.312;2023-04-19T00:37:27;5.07;;;1.50;;
7169;SDS011;3626;42.656;23.312;2023-04-19T00:37:34;5.02;;;1.50;;
7169;SDS011;3626;42.656;23.312;2023-04-19T00:37:40;5.00;;;1.50;;
7169;SDS011;3626;42.656;23.312;2023-04-19T00:37:46;4.97;;;1.42;;